Time;durP1;ratioP1;P1;durP2;ratioP2;P2;SDS_P1;SDS_P2;PMS_P1;PMS_P2;Temp;Humidity;BMP_temperature;BMP_pressure;BME280_temperature;BME280_humidity;BME280_pressure;Samples;Min_cycle;Max_cycle;Signal;HPM_P1;HPM_P2
2023/04/09 00:01:20;;;;;;;;;;;6.00;81.80;;;4.78;nan;96703.94;5015471;28;19924;-87
2023/04/09 00:03:48;;;;;;;;;;;6.00;81.90;;;4.77;nan;96702.28;5032672;28;19951;-86
2023/04/09 00:06:16;;;;;;;;;;;6.00;81.80;;;4.78;nan;96705.84;5015865;28;20085;-86
2023/04/09 00:08:44;;;;;;;;;;;6.00;81.70;;;4.74;nan;96698.16;4999590;28;19917;-87
2023/04/09 00:11:12;;;;;;;;;;;6.00;81.80;;;4.77;nan;96699.56;4999454;28;20116;-87
2023/04/09 00:13:41;;;;;;;;;;;6.00;81.80;;;4.77;nan;96699.56;4999644;28;19917;-87
2023/04/09 00:16:09;;;;;;;;;;;6.00;81.80;;;4.77;nan;96699.56;4999260;28;19916;-87
2023/04/09 00:18:37;;;;;;;;;;;6.00;81.80;;;4.77;nan;96702.28;4999483;28;20208;-87
2023/04/09 00:21:07;;;;;;;;;;;6.00;81.80;;;4.78;nan;96700.44;5031904;28;19923;-86
2023/04/09 00:23:35;;;;;;;;;;;6.00;81.80;;;4.76;nan;96695.19;4999399;28;19917;-85
2023/04/09 00:26:03;;;;;;;;;;;6.00;82.10;;;4.74;nan;96703.56;5015478;28;19923;-86
2023/04/09 00:28:31;;;;;;;;;;;6.00;81.90;;;4.76;nan;96706.03;5033272;28;19917;-85
2023/04/09 00:31:00;;;;;;;;;;;6.00;81.90;;;4.76;nan;96714.19;4999123;28;20113;-85
2023/04/09 00:33:28;;;;;;;;;;;6.00;81.90;;;4.77;nan;96713.13;5015536;28;20119;-87
2023/04/09 00:35:56;;;;;;;;;;;6.00;81.80;;;4.76;nan;96706.03;5015067;28;19917;-86
2023/04/09 00:38:24;;;;;;;;;;;6.00;81.90;;;4.74;nan;96700.84;5015705;28;19917;-86
2023/04/09 00:40:52;;;;;;;;;;;6.00;81.90;;;4.74;nan;96702.72;4998936;28;19950;-86
2023/04/09 00:43:21;;;;;;;;;;;6.00;81.90;;;4.73;nan;96707.34;4999106;28;19917;-86
2023/04/09 00:45:48;;;;;;;;;;;6.00;81.90;;;4.75;nan;96720.66;4998448;28;19917;-86
2023/04/09 00:48:18;;;;;;;;;;;6.00;81.80;;;4.76;nan;96722.31;5031945;28;19917;-86
2023/04/09 00:50:46;;;;;;;;;;;6.00;81.90;;;4.75;nan;96723.38;4998669;28;19924;-87
2023/04/09 00:53:14;;;;;;;;;;;6.00;81.90;;;4.75;nan;96715.22;5014915;28;19917;-87
2023/04/09 00:55:42;;;;;;;;;;;6.00;82.70;;;4.74;nan;96716.28;5015060;28;20240;-86
2023/04/09 00:58:10;;;;;;;;;;;5.90;81.90;;;4.76;nan;96725.03;4998764;28;20105;-86
2023/04/09 01:00:38;;;;;;;;;;;6.00;82.00;;;4.74;nan;96719.84;5027275;28;19921;-86
2023/04/09 01:03:06;;;;;;;;;;;5.90;81.90;;;4.74;nan;96719.84;4998590;28;19917;-86
2023/04/09 01:05:38;;;;;;;;;;;5.90;82.00;;;4.74;nan;96716.28;4997309;28;19925;-87
2023/04/09 01:08:08;;;;;;;;;;;6.00;82.00;;;4.74;nan;96717.13;5014678;28;20120;-85
2023/04/09 01:10:40;;;;;;;;;;;5.90;81.90;;;4.74;nan;96713.56;4998763;28;19917;-87
2023/04/09 01:13:10;;;;;;;;;;;6.00;82.00;;;4.73;nan;96722.75;4998419;28;19924;-87
2023/04/09 01:15:40;;;;;;;;;;;5.90;82.00;;;4.74;nan;96713.56;5014703;28;20097;-87
2023/04/09 01:18:11;;;;;;;;;;;5.90;81.90;;;4.73;nan;96715.47;5031088;28;19939;-86
2023/04/09 01:20:42;;;;;;;;;;;6.00;82.00;;;4.73;nan;96711.91;4998524;28;19931;-87
2023/04/09 01:23:16;;;;;;;;;;;5.90;82.00;;;4.74;nan;96713.56;5014494;28;19917;-86
2023/04/09 01:25:51;;;;;;;;;;;5.90;82.00;;;4.72;nan;96702.09;4998357;28;19924;-86
2023/04/09 01:28:22;;;;;;;;;;;6.00;82.00;;;4.74;nan;96713.56;4998563;28;19917;-86
2023/04/09 01:30:53;;;;;;;;;;;5.90;82.00;;;4.73;nan;96715.47;5014463;28;19917;-87
2023/04/09 01:33:21;;;;;;;;;;;5.90;82.00;;;4.73;nan;96711.91;5014612;28;20209;-86
2023/04/09 01:35:49;;;;;;;;;;;5.90;82.00;;;4.73;nan;96714.63;4997951;28;19917;-86
2023/04/09 01:38:18;;;;;;;;;;;6.00;82.00;;;4.73;nan;96714.63;5014445;28;20132;-86
2023/04/09 01:40:46;;;;;;;;;;;5.90;82.00;;;4.73;nan;96717.34;4998157;28;19923;-86
2023/04/09 01:43:14;;;;;;;;;;;5.90;82.00;;;4.72;nan;96713.81;4998145;28;19917;-86
2023/04/09 01:45:44;;;;;;;;;;;5.90;82.00;;;4.71;nan;96714.84;5014240;28;19923;-87
2023/04/09 01:48:12;;;;;;;;;;;5.90;82.00;;;4.72;nan;96711.09;5014256;28;19917;-86
2023/04/09 01:50:40;;;;;;;;;;;5.90;82.00;;;4.73;nan;96712.75;5030829;28;19923;-86
2023/04/09 01:53:08;;;;;;;;;;;5.90;82.00;;;4.73;nan;96711.91;4997782;28;19924;-86
2023/04/09 01:55:36;;;;;;;;;;;5.90;82.00;;;4.71;nan;96705.91;5031622;28;19917;-86
2023/04/09 01:58:04;;;;;;;;;;;5.90;82.10;;;4.72;nan;96705.66;5014393;28;20238;-86
2023/04/09 02:00:34;;;;;;;;;;;5.90;82.00;;;4.70;nan;96704.25;4998008;28;19987;-87
2023/04/09 02:03:06;;;;;;;;;;;5.90;82.00;;;4.72;nan;96707.53;4997625;28;19917;-86
2023/04/09 02:05:37;;;;;;;;;;;5.90;82.00;;;4.72;nan;96699.41;4997240;28;20212;-87
2023/04/09 02:08:05;;;;;;;;;;;5.90;82.00;;;4.71;nan;96701.28;5013928;28;19917;-86
2023/04/09 02:10:33;;;;;;;;;;;5.90;81.90;;;4.71;nan;96700.47;5014025;28;19917;-86
2023/04/09 02:13:02;;;;;;;;;;;5.90;82.00;;;4.72;nan;96711.09;4997694;28;19923;-86
2023/04/09 02:15:29;;;;;;;;;;;5.90;82.00;;;4.72;nan;96699.41;4997429;28;19917;-86
2023/04/09 02:17:58;;;;;;;;;;;5.90;82.00;;;4.72;nan;96704.81;4997734;28;19925;-87
2023/04/09 02:20:27;;;;;;;;;;;5.90;82.00;;;4.72;nan;96700.25;5028957;28;19917;-86
2023/04/09 02:22:55;;;;;;;;;;;5.90;82.10;;;4.72;nan;96702.09;5029629;28;19924;-86
2023/04/09 02:25:23;;;;;;;;;;;5.90;82.10;;;4.71;nan;96692.34;4997686;28;19917;-86
2023/04/09 02:27:51;;;;;;;;;;;5.90;82.00;;;4.68;nan;96690.06;5047042;28;19929;-87
2023/04/09 02:30:19;;;;;;;;;;;5.90;82.10;;;4.70;nan;96688.78;5006275;28;19921;-87
2023/04/09 02:32:47;;;;;;;;;;;5.90;82.00;;;4.71;nan;96695.88;5013340;28;19917;-86
2023/04/09 02:35:15;;;;;;;;;;;5.90;82.10;;;4.71;nan;96692.34;4997177;28;19923;-86
2023/04/09 02:37:44;;;;;;;;;;;5.90;82.10;;;4.71;nan;96692.34;5013846;28;19917;-86
2023/04/09 02:40:13;;;;;;;;;;;5.90;82.10;;;4.71;nan;96692.34;4997402;28;19923;-86
2023/04/09 02:42:41;;;;;;;;;;;5.90;82.20;;;4.71;nan;96697.75;4997419;28;20124;-86
2023/04/09 02:45:09;;;;;;;;;;;5.90;82.10;;;4.70;nan;96696.09;4997083;28;19917;-87
2023/04/09 02:47:37;;;;;;;;;;;5.90;82.10;;;4.70;nan;96693.38;5013815;28;19917;-87
2023/04/09 02:50:07;;;;;;;;;;;5.90;82.20;;;4.70;nan;96691.50;5030006;28;19917;-86
2023/04/09 02:52:39;;;;;;;;;;;5.90;82.20;;;4.70;nan;96686.06;4997656;28;19917;-86
2023/04/09 02:55:09;;;;;;;;;;;5.90;82.10;;;4.70;nan;96694.19;4996808;28;19917;-85
2023/04/09 02:57:37;;;;;;;;;;;5.90;82.20;;;4.71;nan;96697.75;4997406;28;19917;-85
2023/04/09 03:00:06;;;;;;;;;;;5.90;82.30;;;4.70;nan;96693.38;4996975;28;20123;-85
2023/04/09 03:02:34;;;;;;;;;;;5.90;82.20;;;4.70;nan;96691.50;5013228;28;20209;-85
2023/04/09 03:05:02;;;;;;;;;;;5.90;82.30;;;4.69;nan;96695.25;4996799;28;20093;-85
2023/04/09 03:07:31;;;;;;;;;;;5.90;82.10;;;4.71;nan;96703.19;4996994;28;19917;-86
2023/04/09 03:09:59;;;;;;;;;;;5.90;82.10;;;4.70;nan;96701.53;4997045;28;19942;-86
2023/04/09 03:12:28;;;;;;;;;;;5.90;82.10;;;4.71;nan;96703.19;5029614;28;19923;-86
2023/04/09 03:14:57;;;;;;;;;;;5.90;82.20;;;4.70;nan;96706.94;4997467;28;19917;-86
2023/04/09 03:17:26;;;;;;;;;;;5.90;82.20;;;4.69;nan;96700.69;5016674;28;19923;-86
2023/04/09 03:19:54;;;;;;;;;;;5.90;82.10;;;4.68;nan;96703.63;5000431;28;19923;-85
2023/04/09 03:22:22;;;;;;;;;;;5.90;82.00;;;4.69;nan;96703.38;5000032;28;19924;-86
2023/04/09 03:24:53;;;;;;;;;;;5.90;82.10;;;4.69;nan;96702.56;5016340;28;19917;-86
2023/04/09 03:27:21;;;;;;;;;;;5.90;82.10;;;4.69;nan;96705.28;5000322;28;19923;-86
2023/04/09 03:29:57;;;;;;;;;;;5.90;82.20;;;4.69;nan;96708.81;5000548;28;19923;-86
2023/04/09 03:32:34;;;;;;;;;;;5.90;82.20;;;4.68;nan;96709.88;4996755;28;19917;-87
2023/04/09 03:35:03;;;;;;;;;;;5.90;82.20;;;4.70;nan;96712.38;5012723;28;19923;-87
2023/04/09 03:37:31;;;;;;;;;;;5.90;82.20;;;4.69;nan;96713.41;5000116;28;19917;-87
2023/04/09 03:39:59;;;;;;;;;;;5.90;82.20;;;4.67;nan;96708.19;4999871;28;19924;-86
2023/04/09 03:42:30;;;;;;;;;;;5.90;82.20;;;4.70;nan;96717.78;5000113;28;19917;-87
2023/04/09 03:44:59;;;;;;;;;;;5.90;82.20;;;4.68;nan;96714.47;4999763;28;19923;-87
2023/04/09 03:47:34;;;;;;;;;;;5.90;82.30;;;4.68;nan;96715.28;4999937;28;19924;-87
2023/04/09 03:50:02;;;;;;;;;;;5.90;82.20;;;4.68;nan;96714.47;5049240;28;19917;-87
2023/04/09 03:52:43;;;;;;;;;;;5.90;82.20;;;4.70;nan;96717.78;4999841;28;20226;-86
2023/04/09 03:55:11;;;;;;;;;;;5.90;82.20;;;4.67;nan;96715.53;5016117;28;20189;-87
2023/04/09 03:57:39;;;;;;;;;;;5.90;82.20;;;4.66;nan;96727.41;4999619;28;19923;-85
2023/04/09 04:00:12;;;;;;;;;;;5.90;82.20;;;4.68;nan;96717.19;5015909;28;20207;-85
2023/04/09 04:03:13;;;;;;;;;;;5.90;82.10;;;4.68;nan;96730.75;5016058;28;19931;-86
2023/04/09 04:06:04;;;;;;;;;;;5.90;82.20;;;4.68;nan;96736.97;5032831;28;20112;-86
2023/04/09 04:08:43;;;;;;;;;;;5.90;82.20;;;4.68;nan;96726.13;5032036;28;19923;-86
2023/04/09 04:11:12;;;;;;;;;;;5.90;82.20;;;4.68;nan;96725.31;5032277;28;19924;-86
2023/04/09 04:13:40;;;;;;;;;;;5.90;82.30;;;4.68;nan;96722.59;5015557;28;19917;-86
2023/04/09 04:16:12;;;;;;;;;;;5.90;82.30;;;4.69;nan;96721.56;5015683;28;19923;-86
2023/04/09 04:18:42;;;;;;;;;;;5.90;82.20;;;4.67;nan;96729.06;5032110;28;20112;-86
2023/04/09 04:21:13;;;;;;;;;;;5.90;82.20;;;4.67;nan;96729.91;4999148;28;19921;-85
2023/04/09 04:23:44;;;;;;;;;;;5.90;82.20;;;4.68;nan;96730.75;4999310;28;19924;-86
2023/04/09 04:26:21;;;;;;;;;;;5.90;82.20;;;4.68;nan;96725.31;4998797;28;19923;-85
2023/04/09 04:28:49;;;;;;;;;;;5.90;82.20;;;4.68;nan;96733.44;4999066;28;19917;-87
2023/04/09 04:31:30;;;;;;;;;;;5.90;82.20;;;4.67;nan;96723.66;4999190;28;20000;-87
2023/04/09 04:34:00;;;;;;;;;;;5.90;82.10;;;4.66;nan;96727.41;4999062;28;19917;-86
2023/04/09 04:36:28;;;;;;;;;;;5.90;82.10;;;4.68;nan;96730.75;5031801;28;19917;-86
2023/04/09 04:38:56;;;;;;;;;;;5.90;82.20;;;4.68;nan;96725.31;5015691;28;19925;-87
2023/04/09 04:41:31;;;;;;;;;;;5.90;82.10;;;4.67;nan;96729.06;4998967;28;20209;-87
2023/04/09 04:44:09;;;;;;;;;;;5.90;82.10;;;4.68;nan;96736.16;5015418;28;19917;-87
2023/04/09 04:46:39;;;;;;;;;;;5.90;82.10;;;4.64;nan;96727.66;4999044;28;19917;-87
2023/04/09 04:49:07;;;;;;;;;;;5.90;82.00;;;4.67;nan;96731.78;4999248;28;20234;-87
2023/04/09 04:51:42;;;;;;;;;;;5.90;82.10;;;4.68;nan;96730.75;4999014;28;19925;-87
2023/04/09 04:54:13;;;;;;;;;;;5.90;82.00;;;4.68;nan;96741.59;5015102;28;19923;-87
2023/04/09 04:56:47;;;;;;;;;;;5.90;82.10;;;4.68;nan;96752.44;4998871;28;19917;-86
2023/04/09 04:59:32;;;;;;;;;;;5.90;82.10;;;4.69;nan;96756.81;4999101;28;19917;-86
2023/04/09 05:02:07;;;;;;;;;;;5.90;82.00;;;4.68;nan;96755.97;4996683;28;19917;-86
2023/04/09 05:04:54;;;;;;;;;;;5.90;82.00;;;4.68;nan;96764.09;4997957;28;19917;-86
2023/04/09 05:07:29;;;;;;;;;;;5.90;82.00;;;4.69;nan;96763.06;4998348;28;19917;-86
2023/04/09 05:09:59;;;;;;;;;;;5.90;82.00;;;4.69;nan;96765.75;5014998;28;19923;-87
2023/04/09 05:12:31;;;;;;;;;;;5.90;82.10;;;4.70;nan;96772.03;4998544;28;19917;-88
2023/04/09 05:14:59;;;;;;;;;;;5.90;82.00;;;4.69;nan;96765.75;5014978;28;19917;-87
2023/04/09 05:17:29;;;;;;;;;;;5.90;81.90;;;4.70;nan;96758.47;4998758;28;19917;-88
2023/04/09 05:19:57;;;;;;;;;;;5.90;82.00;;;4.68;nan;96766.81;4998489;28;19917;-87
2023/04/09 05:22:35;;;;;;;;;;;5.90;81.90;;;4.70;nan;96769.31;4998240;28;19917;-87
2023/04/09 05:25:03;;;;;;;;;;;5.90;81.90;;;4.71;nan;96769.09;4998485;28;19917;-87
2023/04/09 05:27:32;;;;;;;;;;;5.90;81.70;;;4.71;nan;96773.69;5014583;28;19917;-87
2023/04/09 05:30:02;;;;;;;;;;;5.90;81.70;;;4.71;nan;96773.69;4998473;28;19923;-87
2023/04/09 05:32:32;;;;;;;;;;;5.90;82.50;;;4.72;nan;96772.63;4994612;28;19961;-87
2023/04/09 05:35:00;;;;;;;;;;;5.90;81.60;;;4.72;nan;96772.63;4994498;28;19917;-87
2023/04/09 05:37:29;;;;;;;;;;;5.90;81.50;;;4.73;nan;96761.56;4994532;28;19999;-87
2023/04/09 05:39:57;;;;;;;;;;;5.90;81.60;;;4.73;nan;96767.00;5011076;28;19980;-87
2023/04/09 05:42:26;;;;;;;;;;;5.90;81.60;;;4.73;nan;96763.44;4994436;28;19940;-87
2023/04/09 05:45:02;;;;;;;;;;;5.90;81.60;;;4.73;nan;96763.44;4994526;28;19921;-87
2023/04/09 05:47:32;;;;;;;;;;;5.90;81.70;;;4.74;nan;96767.81;4994508;28;19917;-87
2023/04/09 05:50:15;;;;;;;;;;;6.00;81.70;;;4.73;nan;96771.56;5011001;28;19917;-88
2023/04/09 05:52:44;;;;;;;;;;;6.00;81.70;;;4.75;nan;96774.91;5010619;28;19916;-88
2023/04/09 05:55:14;;;;;;;;;;;6.00;82.00;;;4.76;nan;96765.72;5026873;28;19917;-87
2023/04/09 05:57:49;;;;;;;;;;;6.00;81.90;;;4.76;nan;96766.56;5026888;28;19927;-88
2023/04/09 06:00:18;;;;;;;;;;;6.00;82.80;;;4.75;nan;96764.91;5010522;28;19988;-87
2023/04/09 06:02:48;;;;;;;;;;;6.00;82.20;;;4.79;nan;96765.28;5026867;28;19917;-87
2023/04/09 06:05:16;;;;;;;;;;;6.00;82.30;;;4.81;nan;96768.63;5010315;28;20226;-87
2023/04/09 06:07:44;;;;;;;;;;;6.00;82.10;;;4.83;nan;96771.09;5010608;28;19917;-87
2023/04/09 06:10:12;;;;;;;;;;;6.00;82.10;;;4.85;nan;96769.00;5020130;28;19917;-88
2023/04/09 06:12:40;;;;;;;;;;;6.10;82.10;;;4.87;nan;96772.34;4994249;28;19918;-87
2023/04/09 06:15:09;;;;;;;;;;;6.10;82.10;;;4.88;nan;96777.53;4993816;28;20235;-87
2023/04/09 06:17:37;;;;;;;;;;;6.10;82.10;;;4.89;nan;96781.91;5010658;28;19924;-88
2023/04/09 06:20:10;;;;;;;;;;;6.10;82.00;;;4.90;nan;96767.28;5026048;28;20132;-87
2023/04/09 06:22:38;;;;;;;;;;;6.10;82.00;;;4.91;nan;96779.81;5010230;28;19921;-87
2023/04/09 06:25:06;;;;;;;;;;;6.10;82.00;;;4.91;nan;96778.97;5009929;28;19928;-87
2023/04/09 06:27:34;;;;;;;;;;;6.10;82.00;;;4.93;nan;96781.47;4994139;28;19921;-87
2023/04/09 06:30:02;;;;;;;;;;;6.10;81.90;;;4.94;nan;96783.13;4993991;28;19921;-87
2023/04/09 06:32:30;;;;;;;;;;;6.10;81.90;;;4.94;nan;96788.56;5010140;28;19927;-87
2023/04/09 06:34:58;;;;;;;;;;;6.20;81.90;;;4.94;nan;96785.84;5009748;28;19921;-86
2023/04/09 06:37:28;;;;;;;;;;;6.20;81.90;;;4.94;nan;96791.28;4993909;28;19995;-87
2023/04/09 06:39:55;;;;;;;;;;;6.20;81.90;;;4.94;nan;96794.00;5009993;28;19921;-87
2023/04/09 06:42:24;;;;;;;;;;;6.10;81.90;;;4.94;nan;96791.28;5010019;28;19927;-87
2023/04/09 06:44:58;;;;;;;;;;;6.10;82.00;;;4.93;nan;96793.13;4993439;28;19932;-88
2023/04/09 06:47:26;;;;;;;;;;;6.20;82.00;;;4.94;nan;96788.56;5027630;28;19921;-87
2023/04/09 06:49:54;;;;;;;;;;;6.20;82.00;;;4.93;nan;96786.91;4993844;28;19988;-87
2023/04/09 06:52:22;;;;;;;;;;;6.10;82.10;;;4.93;nan;96781.47;5013486;28;19921;-88
2023/04/09 06:54:51;;;;;;;;;;;6.10;82.10;;;4.94;nan;96791.28;5013190;28;20289;-87
2023/04/09 06:57:19;;;;;;;;;;;6.10;82.00;;;4.91;nan;96785.22;4997217;28;19922;-87
2023/04/09 06:59:47;;;;;;;;;;;6.20;82.00;;;4.96;nan;96779.13;5013537;28;19921;-87
2023/04/09 07:02:15;;;;;;;;;;;6.20;82.00;;;4.97;nan;96777.28;5013081;28;19921;-87
2023/04/09 07:04:43;;;;;;;;;;;6.20;82.00;;;5.02;nan;96775.56;5013148;28;19927;-88
2023/04/09 07:07:11;;;;;;;;;;;6.20;81.90;;;5.03;nan;96770.94;4996795;28;19921;-87
2023/04/09 07:09:39;;;;;;;;;;;6.20;81.90;;;5.08;nan;96771.13;5013335;28;20262;-87
2023/04/09 07:12:08;;;;;;;;;;;6.30;82.70;;;5.12;nan;96769.63;5013237;28;19928;-88
2023/04/09 07:14:36;;;;;;;;;;;6.30;81.70;;;5.15;nan;96763.75;5008862;28;19921;-88
2023/04/09 07:17:04;;;;;;;;;;;6.40;81.60;;;5.23;nan;96763.47;5013060;28;19921;-87
2023/04/09 07:19:32;;;;;;;;;;;6.40;81.50;;;5.30;nan;96770.72;5013010;28;20286;-87
2023/04/09 07:22:00;;;;;;;;;;;6.50;81.50;;;5.33;nan;96760.25;5012693;28;20117;-90
2023/04/09 07:24:28;;;;;;;;;;;6.50;81.20;;;5.44;nan;96764.13;4996532;28;19921;-88
2023/04/09 07:26:56;;;;;;;;;;;6.60;81.00;;;5.52;nan;96768.44;5030395;28;19935;-88
2023/04/09 07:29:26;;;;;;;;;;;6.60;80.80;;;5.59;nan;96765.66;4996560;28;19922;-87
2023/04/09 07:31:54;;;;;;;;;;;6.70;80.80;;;5.65;nan;96768.28;5045897;28;19927;-88
2023/04/09 07:34:21;;;;;;;;;;;6.80;80.60;;;5.71;nan;96766.56;5029125;28;19921;-87
2023/04/09 07:36:49;;;;;;;;;;;6.80;80.30;;;5.74;nan;96766.13;5012708;28;20393;-88
2023/04/09 07:39:18;;;;;;;;;;;6.90;80.20;;;5.81;nan;96772.31;5012891;28;19943;-88
2023/04/09 07:41:46;;;;;;;;;;;6.90;79.90;;;5.88;nan;96774.09;4996443;28;20225;-88
2023/04/09 07:44:14;;;;;;;;;;;7.00;79.70;;;5.92;nan;96775.31;4996215;28;19928;-89
2023/04/09 07:46:43;;;;;;;;;;;7.00;79.40;;;5.96;nan;96773.81;4996271;28;19921;-88
2023/04/09 07:49:11;;;;;;;;;;;7.00;79.40;;;6.00;nan;96769.63;5012669;28;19921;-88
2023/04/09 07:51:39;;;;;;;;;;;7.10;79.20;;;6.03;nan;96768.31;4996370;28;19928;-89
2023/04/09 07:54:07;;;;;;;;;;;7.10;79.10;;;6.06;nan;96770.59;5012284;28;19921;-88
2023/04/09 07:56:35;;;;;;;;;;;7.10;78.90;;;6.09;nan;96773.69;5030066;28;19921;-89
2023/04/09 07:59:03;;;;;;;;;;;7.20;78.80;;;6.13;nan;96774.88;5012440;28;19921;-88
2023/04/09 08:01:31;;;;;;;;;;;7.20;78.60;;;6.17;nan;96779.84;5011287;28;19927;-88
2023/04/09 08:04:01;;;;;;;;;;;7.20;78.50;;;6.19;nan;96783.19;5012197;28;19921;-89
2023/04/09 08:06:29;;;;;;;;;;;7.30;78.50;;;6.19;nan;96772.31;5012410;28;19929;-86
2023/04/09 08:08:56;;;;;;;;;;;7.30;78.40;;;6.22;nan;96767.25;5028716;28;19922;-88
2023/04/09 08:11:25;;;;;;;;;;;7.30;78.20;;;6.23;nan;96766.19;4992619;28;20233;-87
2023/04/09 08:13:53;;;;;;;;;;;7.30;78.10;;;6.24;nan;96769.75;4976339;28;20114;-86
2023/04/09 08:16:22;;;;;;;;;;;7.30;78.10;;;6.25;nan;96772.22;4992485;28;19921;-86
2023/04/09 08:18:50;;;;;;;;;;;7.30;78.00;;;6.27;nan;96777.44;5025229;28;19957;-88
2023/04/09 08:21:20;;;;;;;;;;;7.40;78.00;;;6.28;nan;96776.38;5008501;28;19928;-87
2023/04/09 08:23:48;;;;;;;;;;;7.40;78.00;;;6.28;nan;96774.50;5024927;28;19935;-88
2023/04/09 08:26:15;;;;;;;;;;;7.40;78.00;;;6.30;nan;96776.97;5021116;28;19921;-87
2023/04/09 08:28:43;;;;;;;;;;;7.40;78.00;;;6.30;nan;96766.09;4995616;28;19935;-87
2023/04/09 08:31:12;;;;;;;;;;;7.40;77.90;;;6.30;nan;96771.53;4996379;28;20094;-87
2023/04/09 08:33:40;;;;;;;;;;;7.40;77.90;;;6.31;nan;96762.31;5016975;23;19921;-84
2023/04/09 08:36:10;;;;;;;;;;;7.40;77.90;;;6.31;nan;96762.31;4995299;28;19921;-84
2023/04/09 08:38:39;;;;;;;;;;;7.40;77.90;;;6.32;nan;96768.59;4995737;28;19943;-83
2023/04/09 08:41:07;;;;;;;;;;;7.40;77.90;;;6.29;nan;96762.56;4996107;28;19928;-84
2023/04/09 08:43:35;;;;;;;;;;;7.40;77.90;;;6.31;nan;96765.03;5001082;28;20237;-85
2023/04/09 08:46:03;;;;;;;;;;;7.40;77.80;;;6.31;nan;96762.31;4992122;28;19922;-85
2023/04/09 08:48:31;;;;;;;;;;;7.50;77.90;;;6.31;nan;96765.03;4976421;28;20204;-85
2023/04/09 08:50:59;;;;;;;;;;;7.50;77.90;;;6.32;nan;96765.88;4976437;28;20116;-85
2023/04/09 08:53:27;;;;;;;;;;;7.50;78.00;;;6.30;nan;96766.09;4992308;28;19928;-85
2023/04/09 08:55:56;;;;;;;;;;;7.50;78.00;;;6.32;nan;96763.16;4991751;28;19922;-85
2023/04/09 08:58:24;;;;;;;;;;;7.50;77.90;;;6.30;nan;96763.38;4972394;28;19929;-85
2023/04/09 09:00:52;;;;;;;;;;;7.50;78.00;;;6.32;nan;96758.53;4956933;28;19929;-84
2023/04/09 09:03:20;;;;;;;;;;;7.50;78.40;;;6.32;nan;96761.25;4956631;28;19940;-84
2023/04/09 09:05:48;;;;;;;;;;;7.50;78.40;;;6.33;nan;96762.09;4970132;28;19932;-84
2023/04/09 09:08:23;;;;;;;;;;;7.40;78.30;;;6.33;nan;96760.22;4972619;28;20006;-84
2023/04/09 09:10:51;;;;;;;;;;;7.50;78.30;;;6.32;nan;96755.00;4958357;28;19922;-85
2023/04/09 09:13:21;;;;;;;;;;;7.50;78.30;;;6.33;nan;96757.50;4975564;28;19925;-84
2023/04/09 09:15:53;;;;;;;;;;;7.50;78.30;;;6.32;nan;96750.38;4965388;28;20235;-84
2023/04/09 09:18:21;;;;;;;;;;;7.40;78.20;;;6.32;nan;96750.38;4956436;28;19922;-85
2023/04/09 09:20:50;;;;;;;;;;;7.50;78.30;;;6.32;nan;96744.94;4975693;28;19922;-84
2023/04/09 09:23:18;;;;;;;;;;;7.50;78.30;;;6.32;nan;96750.38;4956367;28;19922;-84
2023/04/09 09:25:46;;;;;;;;;;;7.50;78.50;;;6.32;nan;96744.13;4956107;28;19929;-84
2023/04/09 09:28:14;;;;;;;;;;;7.50;78.50;;;6.32;nan;96747.66;4956839;28;20145;-85
2023/04/09 09:30:43;;;;;;;;;;;7.50;78.40;;;6.30;nan;96744.34;4972528;28;19922;-85
2023/04/09 09:33:11;;;;;;;;;;;7.50;78.50;;;6.28;nan;96743.75;4972348;28;19923;-85
2023/04/09 09:35:49;;;;;;;;;;;7.50;78.50;;;6.26;nan;96752.13;4956293;28;19928;-85
2023/04/09 09:38:17;;;;;;;;;;;7.50;78.50;;;6.24;nan;96739.84;4956540;28;20209;-84
2023/04/09 09:40:45;;;;;;;;;;;7.40;78.50;;;6.22;nan;96745.50;4956387;28;20213;-85
2023/04/09 09:43:13;;;;;;;;;;;7.40;78.60;;;6.21;nan;96748.44;4972156;28;19930;-84
2023/04/09 09:45:43;;;;;;;;;;;7.40;78.60;;;6.17;nan;96736.38;4956244;28;19946;-84
2023/04/09 09:48:11;;;;;;;;;;;7.40;78.60;;;6.15;nan;96739.31;4956148;28;19922;-85
2023/04/09 09:50:40;;;;;;;;;;;7.30;78.80;;;6.12;nan;96746.06;4956111;28;19929;-85
2023/04/09 09:53:09;;;;;;;;;;;7.30;78.80;;;6.10;nan;96741.88;4986941;28;19943;-84
2023/04/09 09:55:38;;;;;;;;;;;7.30;78.90;;;6.07;nan;96737.75;4991516;28;19926;-85
2023/04/09 09:58:11;;;;;;;;;;;7.30;79.10;;;6.05;nan;96736.31;4975309;28;19928;-85
2023/04/09 10:00:39;;;;;;;;;;;7.30;79.10;;;6.03;nan;96735.72;4975431;28;19928;-84
2023/04/09 10:03:13;;;;;;;;;;;7.20;79.10;;;6.00;nan;96737.00;4975164;28;19921;-85
2023/04/09 10:05:41;;;;;;;;;;;7.20;79.20;;;5.98;nan;96733.66;4975085;28;20117;-85
2023/04/09 10:08:09;;;;;;;;;;;7.20;79.20;;;5.96;nan;96741.19;4975221;28;19922;-86
2023/04/09 10:10:36;;;;;;;;;;;7.20;79.30;;;5.94;nan;96735.16;4975149;28;19922;-85
2023/04/09 10:13:05;;;;;;;;;;;7.20;79.40;;;5.91;nan;96741.03;4991060;28;19954;-85
2023/04/09 10:15:33;;;;;;;;;;;7.10;80.30;;;5.89;nan;96735.00;4991217;28;19943;-85
2023/04/09 10:18:02;;;;;;;;;;;7.10;79.60;;;5.87;nan;96731.72;4991237;28;20214;-85
2023/04/09 10:20:34;;;;;;;;;;;7.10;79.70;;;5.83;nan;96731.31;4975201;28;19928;-85
2023/04/09 10:23:03;;;;;;;;;;;7.10;79.90;;;5.81;nan;96739.69;4974877;28;19928;-84
2023/04/09 10:25:32;;;;;;;;;;;7.00;79.90;;;5.79;nan;96736.38;5006591;28;19922;-86
2023/04/09 10:28:01;;;;;;;;;;;7.00;80.00;;;5.76;nan;96731.38;4975110;28;19928;-85
2023/04/09 10:30:32;;;;;;;;;;;7.00;80.10;;;5.74;nan;96738.97;4975083;28;19922;-86
2023/04/09 10:33:10;;;;;;;;;;;7.00;80.20;;;5.73;nan;96725.56;4990898;28;19922;-85
2023/04/09 10:35:39;;;;;;;;;;;6.90;80.30;;;5.71;nan;96730.41;4991205;28;20231;-84
2023/04/09 10:38:08;;;;;;;;;;;6.90;80.40;;;5.70;nan;96732.31;4990896;28;19944;-84
2023/04/09 10:40:40;;;;;;;;;;;6.90;80.40;;;5.67;nan;96730.03;4975025;28;19922;-84
2023/04/09 10:43:08;;;;;;;;;;;6.90;80.50;;;5.67;nan;96738.19;4991039;28;20205;-84
2023/04/09 10:45:40;;;;;;;;;;;6.90;80.50;;;5.64;nan;96727.75;4990875;28;20231;-85
2023/04/09 10:48:11;;;;;;;;;;;6.90;80.60;;;5.64;nan;96730.47;4990858;28;19922;-84
2023/04/09 10:50:42;;;;;;;;;;;6.80;80.50;;;5.62;nan;96732.59;4974914;28;19928;-85
2023/04/09 10:53:21;;;;;;;;;;;6.80;80.70;;;5.61;nan;96730.94;4983478;28;19922;-85
2023/04/09 10:55:49;;;;;;;;;;;6.80;80.70;;;5.59;nan;96723.00;4955354;28;19922;-84
2023/04/09 10:58:17;;;;;;;;;;;6.80;80.80;;;5.59;nan;96727.63;4955229;28;19922;-84
2023/04/09 11:00:46;;;;;;;;;;;6.80;80.80;;;5.58;nan;96723.25;4955393;28;20128;-84
2023/04/09 11:03:21;;;;;;;;;;;6.80;80.90;;;5.58;nan;96721.34;4955348;28;19928;-84
2023/04/09 11:05:54;;;;;;;;;;;6.80;80.90;;;5.57;nan;96716.97;4954951;28;19922;-85
2023/04/09 11:08:22;;;;;;;;;;;6.80;81.00;;;5.57;nan;96716.97;4961581;28;19921;-84
2023/04/09 11:10:52;;;;;;;;;;;6.80;81.00;;;5.57;nan;96716.97;4990901;28;19928;-85
2023/04/09 11:13:20;;;;;;;;;;;6.80;81.00;;;5.55;nan;96713.66;4974493;28;19928;-84
2023/04/09 11:15:48;;;;;;;;;;;6.80;81.00;;;5.56;nan;96715.31;4974458;28;19922;-84
2023/04/09 11:18:19;;;;;;;;;;;6.80;81.00;;;5.58;nan;96710.47;4990317;28;19941;-84
2023/04/09 11:20:47;;;;;;;;;;;6.80;81.00;;;5.58;nan;96706.94;4974360;28;20216;-83
2023/04/09 11:23:17;;;;;;;;;;;6.80;81.10;;;5.58;nan;96706.94;4973961;28;19922;-85
2023/04/09 11:25:48;;;;;;;;;;;6.80;81.00;;;5.58;nan;96701.53;4990408;28;19928;-84
2023/04/09 11:28:16;;;;;;;;;;;6.80;81.00;;;5.58;nan;96705.06;4990553;28;20120;-85
2023/04/09 11:30:45;;;;;;;;;;;6.80;81.00;;;5.58;nan;96704.25;4974389;28;19929;-85
2023/04/09 11:33:13;;;;;;;;;;;6.80;81.00;;;5.59;nan;96703.19;4973900;28;20421;-84
2023/04/09 11:35:41;;;;;;;;;;;6.80;81.00;;;5.58;nan;96691.47;4974087;28;19922;-84
2023/04/09 11:38:09;;;;;;;;;;;6.80;81.00;;;5.59;nan;96697.75;4993657;28;19928;-85
2023/04/09 11:40:46;;;;;;;;;;;6.80;81.00;;;5.58;nan;96696.91;4993836;28;20150;-85
2023/04/09 11:43:15;;;;;;;;;;;6.80;81.00;;;5.58;nan;96699.63;4990778;28;20141;-84
2023/04/09 11:45:43;;;;;;;;;;;6.80;81.00;;;5.58;nan;96696.09;4993231;28;20236;-85
2023/04/09 11:48:12;;;;;;;;;;;6.80;81.00;;;5.57;nan;96694.44;4977204;28;19922;-84
2023/04/09 11:50:40;;;;;;;;;;;6.80;81.00;;;5.57;nan;96706.09;4977303;28;19922;-84
2023/04/09 11:53:18;;;;;;;;;;;6.80;81.00;;;5.57;nan;96699.84;4977047;28;19922;-85
2023/04/09 11:55:49;;;;;;;;;;;6.80;81.10;;;5.56;nan;96698.19;4977244;28;20221;-84
2023/04/09 11:58:17;;;;;;;;;;;6.80;81.20;;;5.56;nan;96698.19;4977127;28;19928;-84
2023/04/09 12:00:45;;;;;;;;;;;6.80;81.10;;;5.55;nan;96699.25;4977156;28;20239;-84
2023/04/09 12:03:14;;;;;;;;;;;6.80;81.20;;;5.55;nan;96693.81;4976746;28;19922;-85